createdAt,value
2022-12-17T00:00:01.696Z,18.42
2022-12-17T00:02:52.083Z,17.83
2022-12-17T00:05:39.800Z,16.02
2022-12-17T00:08:27.338Z,16.48
2022-12-17T00:11:17.681Z,15.32
2022-12-17T00:14:05.656Z,17.63
2022-12-17T00:16:53.267Z,12.68
2022-12-17T00:19:40.920Z,22.75
2022-12-17T00:22:29.518Z,22.10
2022-12-17T00:25:16.686Z,20.52
2022-12-17T00:28:05.185Z,19.60
2022-12-17T00:30:52.387Z,17.67
2022-12-17T00:33:39.663Z,20.10
2022-12-17T00:36:27.346Z,18.10
2022-12-17T00:39:16.378Z,18.58
2022-12-17T00:42:03.597Z,18.17
2022-12-17T00:44:52.166Z,17.83
2022-12-17T00:47:41.129Z,17.75
2022-12-17T00:50:29.931Z,20.13
2022-12-17T00:56:24.650Z,19.00
2022-12-17T00:59:11.957Z,20.85
2022-12-17T01:02:00.405Z,18.55
2022-12-17T01:04:47.552Z,17.20
2022-12-17T01:07:35.855Z,16.40
2022-12-17T01:10:23.316Z,17.13
2022-12-17T01:13:10.919Z,17.17
2022-12-17T01:15:58.027Z,19.83
2022-12-17T01:18:47.048Z,15.25
2022-12-17T01:21:34.002Z,18.50
2022-12-17T01:24:22.936Z,19.90
2022-12-17T01:27:10.448Z,20.05
2022-12-17T01:29:57.955Z,18.50
2022-12-17T01:32:44.997Z,17.92
2022-12-17T01:35:32.917Z,19.52
2022-12-17T01:38:19.889Z,17.60
2022-12-17T01:41:11.874Z,19.23
2022-12-17T01:43:58.755Z,19.40
2022-12-17T01:46:48.497Z,17.17
2022-12-17T01:49:35.969Z,15.65
2022-12-17T01:52:25.338Z,17.75
2022-12-17T01:55:12.607Z,16.92
2022-12-17T01:57:59.997Z,16.75
2022-12-17T02:00:47.279Z,17.73
2022-12-17T02:03:35.980Z,19.80
2022-12-17T02:06:29.413Z,18.00
2022-12-17T02:09:25.969Z,16.52
2022-12-17T02:12:31.889Z,17.70
2022-12-17T02:15:33.059Z,16.73
2022-12-17T02:18:21.607Z,18.60
2022-12-17T02:21:11.140Z,18.58
2022-12-17T02:24:14.274Z,19.50
2022-12-17T02:27:04.889Z,15.57
2022-12-17T02:29:58.129Z,14.43
2022-12-17T02:32:46.017Z,17.83
2022-12-17T02:35:38.477Z,16.02
2022-12-17T02:38:43.298Z,18.70
2022-12-17T02:41:46.347Z,17.67
2022-12-17T02:44:37.127Z,17.38
2022-12-17T02:47:26.678Z,21.02
2022-12-17T02:50:15.205Z,16.33
2022-12-17T02:53:05.457Z,18.52
2022-12-17T02:55:54.244Z,16.45
2022-12-17T02:58:41.676Z,15.02
2022-12-17T03:01:30.301Z,17.15
2022-12-17T03:04:17.017Z,16.67
2022-12-17T03:07:06.479Z,17.13
2022-12-17T03:09:53.527Z,15.93
2022-12-17T03:13:02.078Z,16.98
2022-12-17T03:15:48.787Z,14.75
2022-12-17T03:18:35.715Z,18.73
2022-12-17T03:21:22.657Z,17.42
2022-12-17T03:24:09.679Z,17.08
2022-12-17T03:26:56.746Z,18.90
2022-12-17T03:29:43.996Z,20.25
2022-12-17T03:32:30.717Z,18.08
2022-12-17T03:35:18.067Z,17.15
2022-12-17T03:38:05.078Z,15.80
2022-12-17T03:40:52.355Z,15.98
2022-12-17T03:43:39.736Z,16.50
2022-12-17T03:46:27.309Z,16.70
2022-12-17T03:49:14.177Z,19.88
2022-12-17T03:52:01.216Z,17.13
2022-12-17T03:54:48.037Z,17.00
2022-12-17T03:57:35.438Z,14.52
2022-12-17T04:00:24.938Z,18.95
2022-12-17T04:03:13.465Z,17.20
2022-12-17T04:06:01.189Z,14.02
2022-12-17T04:08:48.315Z,16.52
2022-12-17T04:11:35.146Z,16.02
2022-12-17T04:14:22.206Z,18.23
2022-12-17T04:17:08.977Z,15.18
2022-12-17T04:19:56.176Z,20.02
2022-12-17T04:22:43.057Z,18.45
2022-12-17T04:25:30.136Z,18.25
2022-12-17T04:28:28.075Z,16.48
2022-12-17T04:31:16.126Z,16.65
2022-12-17T04:34:03.271Z,15.50
2022-12-17T04:36:52.696Z,18.50
2022-12-17T04:39:40.058Z,17.63
2022-12-17T04:42:27.510Z,17.20
2022-12-17T04:45:14.780Z,18.42
2022-12-17T04:48:02.297Z,16.23
2022-12-17T04:50:49.498Z,16.10
2022-12-17T04:53:37.469Z,18.58
2022-12-17T04:56:25.817Z,19.63
2022-12-17T04:59:13.336Z,17.48
2022-12-17T05:02:00.963Z,17.60
2022-12-17T05:04:48.801Z,17.23
2022-12-17T05:07:35.680Z,19.90
2022-12-17T05:10:23.479Z,18.25
2022-12-17T05:13:20.118Z,16.33
2022-12-17T05:16:07.807Z,15.63
2022-12-17T05:18:55.251Z,18.27
2022-12-17T05:21:42.721Z,19.05
2022-12-17T05:24:29.940Z,21.50
2022-12-17T05:27:17.660Z,21.70
2022-12-17T05:30:04.874Z,17.60
2022-12-17T05:32:52.580Z,21.00
2022-12-17T05:35:39.701Z,18.75
2022-12-17T05:38:28.460Z,18.23
2022-12-17T05:41:18.231Z,19.70
2022-12-17T05:44:05.650Z,18.85
2022-12-17T05:46:52.851Z,21.10
2022-12-17T05:49:40.479Z,20.98
2022-12-17T05:52:27.630Z,19.15
2022-12-17T05:55:29.726Z,19.80
2022-12-17T05:58:28.244Z,19.75
2022-12-17T06:01:20.128Z,19.05
2022-12-17T06:04:07.956Z,21.20
2022-12-17T06:06:55.170Z,20.85
2022-12-17T06:09:42.921Z,21.65
2022-12-17T06:12:30.301Z,18.58
2022-12-17T06:15:18.000Z,20.63
2022-12-17T06:18:17.528Z,23.30
2022-12-17T06:21:05.387Z,20.55
2022-12-17T06:23:52.700Z,20.50
2022-12-17T06:26:40.014Z,18.88
2022-12-17T06:29:30.281Z,20.98
2022-12-17T06:32:17.662Z,19.25
2022-12-17T06:35:04.788Z,19.73
2022-12-17T06:37:52.442Z,19.40
2022-12-17T06:40:39.913Z,20.25
2022-12-17T06:43:28.071Z,18.77
2022-12-17T06:46:14.905Z,19.05
2022-12-17T06:49:02.460Z,19.67
2022-12-17T06:51:49.903Z,18.73
2022-12-17T06:54:38.190Z,18.00
2022-12-17T06:57:25.303Z,18.50
2022-12-17T07:00:12.634Z,16.70
2022-12-17T07:03:00.202Z,19.67
2022-12-17T07:05:47.834Z,17.50
2022-12-17T07:08:35.049Z,19.17
2022-12-17T07:11:22.624Z,19.35
2022-12-17T07:14:09.911Z,19.40
2022-12-17T07:16:57.520Z,24.00
2022-12-17T07:19:45.001Z,22.27
2022-12-17T07:22:32.357Z,17.77
2022-12-17T07:25:19.726Z,16.80
2022-12-17T07:28:14.115Z,15.77
2022-12-17T07:31:01.293Z,17.65
2022-12-17T07:34:02.722Z,17.45
2022-12-17T07:37:09.843Z,16.08
2022-12-17T07:39:57.512Z,18.85
2022-12-17T07:42:45.245Z,18.25
2022-12-17T07:45:32.895Z,17.95
2022-12-17T07:48:20.220Z,15.50
2022-12-17T07:51:08.771Z,16.85
2022-12-17T07:54:15.916Z,19.48
2022-12-17T07:57:03.171Z,15.45
2022-12-17T07:59:50.609Z,17.73
2022-12-17T08:02:38.281Z,15.75
2022-12-17T08:05:26.360Z,16.67
2022-12-17T08:08:13.871Z,17.67
2022-12-17T08:11:07.812Z,17.05
2022-12-17T08:13:57.101Z,17.00
2022-12-17T08:16:44.410Z,17.33
2022-12-17T08:19:32.228Z,19.15
2022-12-17T08:22:19.581Z,20.10
2022-12-17T08:25:07.182Z,18.02
2022-12-17T08:27:54.502Z,31.33
2022-12-17T08:30:42.208Z,17.83
2022-12-17T08:33:29.440Z,19.30
2022-12-17T08:36:16.870Z,20.13
2022-12-17T08:39:04.761Z,21.08
2022-12-17T08:41:54.957Z,18.65
2022-12-17T08:44:54.671Z,19.27
2022-12-17T08:47:44.900Z,20.10
2022-12-17T08:50:32.350Z,19.38
2022-12-17T08:53:20.740Z,25.15
2022-12-17T08:56:08.554Z,22.23
2022-12-17T08:58:59.251Z,22.00
2022-12-17T09:01:47.476Z,24.45
2022-12-17T09:04:34.843Z,19.40
2022-12-17T09:07:22.000Z,20.55
2022-12-17T09:10:09.499Z,20.02
2022-12-17T09:13:01.172Z,19.58
2022-12-17T09:15:52.113Z,26.92
2022-12-17T09:18:40.564Z,21.90
2022-12-17T09:21:28.211Z,21.80
2022-12-17T09:24:16.219Z,18.05
2022-12-17T09:27:03.800Z,23.85
2022-12-17T09:29:50.820Z,19.42
2022-12-17T09:32:39.780Z,20.83
2022-12-17T09:35:26.921Z,20.67
2022-12-17T09:38:14.971Z,23.55
2022-12-17T09:41:05.752Z,27.83
2022-12-17T09:44:13.602Z,20.00
2022-12-17T09:47:10.234Z,24.55
2022-12-17T09:49:57.522Z,22.80
2022-12-17T09:52:58.791Z,23.48
2022-12-17T09:55:52.999Z,23.70
2022-12-17T09:58:42.449Z,23.95
2022-12-17T10:01:47.101Z,20.40
2022-12-17T10:04:40.449Z,23.83
2022-12-17T10:07:31.790Z,19.45
2022-12-17T10:10:19.621Z,19.80
2022-12-17T10:13:08.162Z,24.40
2022-12-17T10:15:55.291Z,23.83
2022-12-17T10:18:43.329Z,26.92
2022-12-17T10:21:30.320Z,25.00
2022-12-17T10:24:26.840Z,21.60
2022-12-17T10:27:14.192Z,23.67
2022-12-17T10:30:02.577Z,23.48
2022-12-17T10:32:49.559Z,25.70
2022-12-17T10:35:45.178Z,24.05
2022-12-17T10:38:46.152Z,28.08
2022-12-17T10:41:52.790Z,24.08
2022-12-17T10:44:56.570Z,19.40
2022-12-17T10:47:45.208Z,26.45
2022-12-17T10:50:42.087Z,20.23
2022-12-17T10:53:40.576Z,21.02
2022-12-17T10:56:41.622Z,23.40
2022-12-17T10:59:55.599Z,22.38
2022-12-17T11:02:47.789Z,20.30
2022-12-17T11:05:41.971Z,20.07
2022-12-17T11:11:16.349Z,21.80
2022-12-17T11:14:04.800Z,19.20
2022-12-17T11:17:00.999Z,18.42
2022-12-17T11:19:53.401Z,22.48
2022-12-17T11:22:40.780Z,22.17
2022-12-17T11:25:49.412Z,22.33
2022-12-17T11:28:47.519Z,25.50
2022-12-17T11:31:37.371Z,26.10
2022-12-17T11:35:00.051Z,24.27
2022-12-17T11:38:28.248Z,23.80
2022-12-17T11:41:23.689Z,28.45
2022-12-17T11:44:22.770Z,27.50
2022-12-17T11:47:11.560Z,24.67
2022-12-17T11:50:18.391Z,26.90
2022-12-17T11:53:27.955Z,26.90
2022-12-17T11:56:52.611Z,33.03
2022-12-17T12:00:03.814Z,23.08
2022-12-17T12:02:55.663Z,26.70
2022-12-17T12:06:02.163Z,25.45
2022-12-17T12:09:01.969Z,30.42
2022-12-17T12:12:09.687Z,28.27
2022-12-17T12:15:00.559Z,32.17
2022-12-17T12:18:07.744Z,31.50
2022-12-17T12:21:13.150Z,24.77
2022-12-17T12:24:06.300Z,26.33
2022-12-17T12:27:43.940Z,27.25
2022-12-17T12:30:42.293Z,23.55
2022-12-17T12:33:50.039Z,23.95
2022-12-17T12:36:39.059Z,22.77
2022-12-17T12:39:28.541Z,26.10
2022-12-17T12:42:21.121Z,33.78
2022-12-17T12:45:21.298Z,40.25
2022-12-17T12:48:17.351Z,33.67
2022-12-17T12:51:16.939Z,30.58
2022-12-17T12:54:14.854Z,34.85
2022-12-17T12:57:01.971Z,34.17
2022-12-17T12:59:53.559Z,33.05
2022-12-17T13:02:43.027Z,33.10
2022-12-17T13:05:38.968Z,28.23
2022-12-17T13:08:24.110Z,27.37
2022-12-17T13:10:53.730Z,32.00
2022-12-17T13:13:28.786Z,25.05
2022-12-17T13:16:02.273Z,29.38
2022-12-17T13:18:35.999Z,21.80
2022-12-17T13:21:16.359Z,22.48
2022-12-17T13:23:45.119Z,23.77
2022-12-17T13:26:23.199Z,17.95
2022-12-17T13:29:24.984Z,20.38
2022-12-17T13:32:09.320Z,21.63
2022-12-17T13:34:37.977Z,21.10
2022-12-17T13:37:11.628Z,21.25
2022-12-17T13:40:16.531Z,16.73
2022-12-17T13:42:46.516Z,19.02
2022-12-17T13:45:19.913Z,17.45
2022-12-17T13:47:59.179Z,16.77
2022-12-17T13:50:34.422Z,16.48
2022-12-17T13:53:12.384Z,17.20
2022-12-17T13:55:41.118Z,14.77
2022-12-17T13:58:22.539Z,14.18
2022-12-17T14:00:51.421Z,15.55
2022-12-17T14:03:42.909Z,14.82
2022-12-17T14:06:12.118Z,17.75
2022-12-17T14:08:41.148Z,15.23
2022-12-17T14:11:29.660Z,14.98
2022-12-17T14:13:58.668Z,13.75
2022-12-17T14:16:27.392Z,13.27
2022-12-17T14:18:57.547Z,13.38
2022-12-17T14:21:27.588Z,13.10
2022-12-17T14:23:57.337Z,15.68
2022-12-17T14:26:26.457Z,12.63
2022-12-17T14:28:55.819Z,12.60
2022-12-17T14:31:29.350Z,11.15
2022-12-17T14:34:16.608Z,11.55
2022-12-17T14:36:46.546Z,15.07
2022-12-17T14:39:25.665Z,12.48
2022-12-17T14:42:14.807Z,11.70
2022-12-17T14:44:54.366Z,12.95
2022-12-17T14:47:24.800Z,9.75
2022-12-17T14:50:21.783Z,11.50
2022-12-17T14:52:54.569Z,10.25
2022-12-17T14:57:53.436Z,12.27
2022-12-17T15:00:22.639Z,11.68
2022-12-17T15:02:55.911Z,10.45
2022-12-17T15:05:25.115Z,8.95
2022-12-17T15:07:55.744Z,9.20
2022-12-17T15:10:24.832Z,11.55
2022-12-17T15:12:53.483Z,11.15
2022-12-17T15:15:22.478Z,11.35
2022-12-17T15:17:51.197Z,8.50
2022-12-17T15:20:21.442Z,8.75
2022-12-17T15:22:50.232Z,9.25
2022-12-17T15:25:20.294Z,9.23
2022-12-17T15:27:48.992Z,8.88
2022-12-17T15:30:18.378Z,9.88
2022-12-17T15:32:47.324Z,9.25
2022-12-17T15:35:16.426Z,11.02
2022-12-17T15:37:45.112Z,8.70
2022-12-17T15:40:14.165Z,8.52
2022-12-17T15:43:06.140Z,8.40
2022-12-17T15:45:35.574Z,11.47
2022-12-17T15:48:04.334Z,11.43
2022-12-17T15:50:33.512Z,9.10
2022-12-17T15:53:02.443Z,11.30
2022-12-17T15:55:31.555Z,7.90
2022-12-17T15:58:00.283Z,7.00
2022-12-17T16:00:29.447Z,10.80
2022-12-17T16:02:59.469Z,13.02
2022-12-17T16:05:28.802Z,12.50
2022-12-17T16:08:02.818Z,9.45
2022-12-17T16:10:32.113Z,10.70
2022-12-17T16:13:00.876Z,8.75
2022-12-17T16:15:30.532Z,9.45
2022-12-17T16:17:59.684Z,11.00
2022-12-17T16:20:28.792Z,9.80
2022-12-17T16:22:57.603Z,13.95
2022-12-17T16:25:26.602Z,12.70
2022-12-17T16:27:55.303Z,12.75
2022-12-17T16:30:24.315Z,13.90
2022-12-17T16:32:53.022Z,12.65
2022-12-17T16:35:23.929Z,11.68
2022-12-17T16:37:52.654Z,11.80
2022-12-17T16:40:22.603Z,10.75
2022-12-17T16:42:52.023Z,10.88
2022-12-17T16:45:21.051Z,9.25
2022-12-17T16:47:51.094Z,12.70
2022-12-17T16:50:20.153Z,11.48
2022-12-17T16:52:48.913Z,13.43
2022-12-17T16:55:18.022Z,11.60
2022-12-17T16:57:49.762Z,12.07
2022-12-17T17:00:18.896Z,12.23
2022-12-17T17:02:52.971Z,10.50
2022-12-17T17:05:22.877Z,12.70
2022-12-17T17:07:52.293Z,15.13
2022-12-17T17:10:21.333Z,12.07
2022-12-17T17:12:52.793Z,9.82
2022-12-17T17:15:22.973Z,15.43
2022-12-17T17:17:56.030Z,10.35
2022-12-17T17:20:32.688Z,15.15
2022-12-17T17:23:01.510Z,11.80
2022-12-17T17:25:54.280Z,12.05
2022-12-17T17:28:20.952Z,14.35
2022-12-17T17:30:50.021Z,12.45
2022-12-17T17:33:18.842Z,11.60
2022-12-17T17:35:47.794Z,14.10
2022-12-17T17:38:16.471Z,15.18
2022-12-17T17:40:45.504Z,14.65
2022-12-17T17:43:14.204Z,14.50
2022-12-17T17:45:43.450Z,13.45
2022-12-17T17:48:12.113Z,14.30
2022-12-17T17:50:41.116Z,13.02
2022-12-17T17:53:09.883Z,14.82
2022-12-17T17:55:38.612Z,16.13
2022-12-17T17:58:07.597Z,16.55
2022-12-17T18:00:37.673Z,18.98
2022-12-17T18:03:06.773Z,14.57
2022-12-17T18:05:41.731Z,18.80
2022-12-17T18:08:11.062Z,18.52
2022-12-17T18:10:39.783Z,14.60
2022-12-17T18:13:27.622Z,16.42
2022-12-17T18:16:01.973Z,16.98
2022-12-17T18:18:31.412Z,20.80
2022-12-17T18:21:07.962Z,18.40
2022-12-17T18:23:37.412Z,21.83
